sensor_id;sensor_type;location;lat;lon;timestamp;P1;durP1;ratioP1;P2;durP2;ratioP2
17482;SDS011;8858;52.308;20.994;2023-04-25T00:00:50;12.50;;;11.20;;
17482;SDS011;8858;52.308;20.994;2023-04-25T00:03:19;12.57;;;11.30;;
17482;SDS011;8858;52.308;20.994;2023-04-25T00:05:52;13.17;;;11.87;;
17482;SDS011;8858;52.308;20.994;2023-04-25T00:08:26;13.60;;;12.17;;
17482;SDS011;8858;52.308;20.994;2023-04-25T00:10:54;17.47;;;13.17;;
17482;SDS011;8858;52.308;20.994;2023-04-25T00:13:22;14.10;;;12.63;;
17482;SDS011;8858;52.308;20.994;2023-04-25T00:15:52;14.23;;;12.93;;
17482;SDS011;8858;52.308;20.994;2023-04-25T00:18:20;14.13;;;12.73;;
17482;SDS011;8858;52.308;20.994;2023-04-25T00:20:48;16.50;;;13.17;;
17482;SDS011;8858;52.308;20.994;2023-04-25T00:23:17;15.23;;;13.60;;
17482;SDS011;8858;52.308;20.994;2023-04-25T00:25:48;14.20;;;12.80;;
17482;SDS011;8858;52.308;20.994;2023-04-25T00:28:17;13.57;;;12.17;;
17482;SDS011;8858;52.308;20.994;2023-04-25T00:30:47;14.77;;;13.27;;
17482;SDS011;8858;52.308;20.994;2023-04-25T00:33:15;15.87;;;13.50;;
17482;SDS011;8858;52.308;20.994;2023-04-25T00:35:44;15.17;;;13.63;;
17482;SDS011;8858;52.308;20.994;2023-04-25T00:38:12;15.30;;;13.70;;
17482;SDS011;8858;52.308;20.994;2023-04-25T00:40:41;14.27;;;12.87;;
17482;SDS011;8858;52.308;20.994;2023-04-25T00:43:12;15.73;;;13.03;;
17482;SDS011;8858;52.308;20.994;2023-04-25T00:45:41;14.57;;;13.13;;
17482;SDS011;8858;52.308;20.994;2023-04-25T00:48:11;14.00;;;12.70;;
17482;SDS011;8858;52.308;20.994;2023-04-25T00:50:50;14.37;;;13.07;;
17482;SDS011;8858;52.308;20.994;2023-04-25T00:53:20;14.50;;;13.10;;
17482;SDS011;8858;52.308;20.994;2023-04-25T00:55:50;14.07;;;12.83;;
17482;SDS011;8858;52.308;20.994;2023-04-25T00:58:21;14.10;;;12.33;;
17482;SDS011;8858;52.308;20.994;2023-04-25T01:00:51;15.53;;;12.90;;
17482;SDS011;8858;52.308;20.994;2023-04-25T01:03:21;12.63;;;11.53;;
17482;SDS011;8858;52.308;20.994;2023-04-25T01:05:49;14.53;;;12.57;;
17482;SDS011;8858;52.308;20.994;2023-04-25T01:08:20;15.47;;;13.93;;
17482;SDS011;8858;52.308;20.994;2023-04-25T01:10:52;14.13;;;12.63;;
17482;SDS011;8858;52.308;20.994;2023-04-25T01:13:21;18.63;;;16.40;;
17482;SDS011;8858;52.308;20.994;2023-04-25T01:15:49;19.13;;;17.10;;
17482;SDS011;8858;52.308;20.994;2023-04-25T01:18:19;18.83;;;16.77;;
17482;SDS011;8858;52.308;20.994;2023-04-25T01:20:48;19.90;;;16.77;;
17482;SDS011;8858;52.308;20.994;2023-04-25T01:23:21;18.90;;;15.63;;
17482;SDS011;8858;52.308;20.994;2023-04-25T01:25:51;16.30;;;14.60;;
17482;SDS011;8858;52.308;20.994;2023-04-25T01:28:20;16.77;;;15.07;;
17482;SDS011;8858;52.308;20.994;2023-04-25T01:30:48;16.37;;;14.33;;
17482;SDS011;8858;52.308;20.994;2023-04-25T01:33:17;15.70;;;14.10;;
17482;SDS011;8858;52.308;20.994;2023-04-25T01:35:51;17.53;;;15.83;;
17482;SDS011;8858;52.308;20.994;2023-04-25T01:38:19;16.87;;;15.23;;
17482;SDS011;8858;52.308;20.994;2023-04-25T01:40:50;16.93;;;15.13;;
17482;SDS011;8858;52.308;20.994;2023-04-25T01:43:20;17.17;;;15.43;;
17482;SDS011;8858;52.308;20.994;2023-04-25T01:45:50;20.33;;;16.33;;
17482;SDS011;8858;52.308;20.994;2023-04-25T01:48:20;16.37;;;14.67;;
17482;SDS011;8858;52.308;20.994;2023-04-25T01:50:49;17.67;;;15.80;;
17482;SDS011;8858;52.308;20.994;2023-04-25T01:53:17;17.43;;;15.63;;
17482;SDS011;8858;52.308;20.994;2023-04-25T01:55:47;16.97;;;15.33;;
17482;SDS011;8858;52.308;20.994;2023-04-25T01:58:18;16.73;;;15.13;;
17482;SDS011;8858;52.308;20.994;2023-04-25T02:01:01;16.77;;;14.57;;
17482;SDS011;8858;52.308;20.994;2023-04-25T02:03:38;16.27;;;14.80;;
17482;SDS011;8858;52.308;20.994;2023-04-25T02:06:16;16.30;;;14.70;;
17482;SDS011;8858;52.308;20.994;2023-04-25T02:08:46;15.57;;;13.97;;
17482;SDS011;8858;52.308;20.994;2023-04-25T02:11:16;15.90;;;14.40;;
17482;SDS011;8858;52.308;20.994;2023-04-25T02:13:53;16.10;;;14.60;;
17482;SDS011;8858;52.308;20.994;2023-04-25T02:16:35;15.47;;;13.87;;
17482;SDS011;8858;52.308;20.994;2023-04-25T02:19:06;16.57;;;14.63;;
17482;SDS011;8858;52.308;20.994;2023-04-25T02:21:35;15.47;;;13.93;;
17482;SDS011;8858;52.308;20.994;2023-04-25T02:24:03;15.87;;;14.20;;
17482;SDS011;8858;52.308;20.994;2023-04-25T02:26:34;16.03;;;14.43;;
17482;SDS011;8858;52.308;20.994;2023-04-25T02:29:06;15.67;;;13.50;;
17482;SDS011;8858;52.308;20.994;2023-04-25T02:31:35;16.00;;;14.33;;
17482;SDS011;8858;52.308;20.994;2023-04-25T02:34:03;14.73;;;13.33;;
17482;SDS011;8858;52.308;20.994;2023-04-25T02:36:34;15.17;;;13.67;;
17482;SDS011;8858;52.308;20.994;2023-04-25T02:39:07;16.50;;;14.90;;
17482;SDS011;8858;52.308;20.994;2023-04-25T02:41:38;15.27;;;13.77;;
17482;SDS011;8858;52.308;20.994;2023-04-25T02:44:06;14.97;;;12.90;;
17482;SDS011;8858;52.308;20.994;2023-04-25T02:46:36;17.23;;;13.63;;
17482;SDS011;8858;52.308;20.994;2023-04-25T02:51:58;16.83;;;14.10;;
17482;SDS011;8858;52.308;20.994;2023-04-25T02:54:26;15.67;;;14.10;;
17482;SDS011;8858;52.308;20.994;2023-04-25T02:56:57;15.47;;;13.97;;
17482;SDS011;8858;52.308;20.994;2023-04-25T02:59:34;14.77;;;13.27;;
17482;SDS011;8858;52.308;20.994;2023-04-25T03:02:02;14.70;;;13.20;;
17482;SDS011;8858;52.308;20.994;2023-04-25T03:04:31;14.20;;;12.80;;
17482;SDS011;8858;52.308;20.994;2023-04-25T03:07:03;15.90;;;14.07;;
17482;SDS011;8858;52.308;20.994;2023-04-25T03:09:31;15.10;;;13.60;;
17482;SDS011;8858;52.308;20.994;2023-04-25T03:12:00;14.80;;;13.33;;
17482;SDS011;8858;52.308;20.994;2023-04-25T03:14:30;13.97;;;12.30;;
17482;SDS011;8858;52.308;20.994;2023-04-25T03:16:59;14.73;;;13.23;;
17482;SDS011;8858;52.308;20.994;2023-04-25T03:19:27;14.70;;;12.50;;
17482;SDS011;8858;52.308;20.994;2023-04-25T03:21:56;14.13;;;12.83;;
17482;SDS011;8858;52.308;20.994;2023-04-25T03:24:25;14.70;;;13.07;;
17482;SDS011;8858;52.308;20.994;2023-04-25T03:26:53;14.67;;;12.60;;
17482;SDS011;8858;52.308;20.994;2023-04-25T03:29:23;13.20;;;11.93;;
17482;SDS011;8858;52.308;20.994;2023-04-25T03:31:58;13.57;;;12.17;;
17482;SDS011;8858;52.308;20.994;2023-04-25T03:34:27;14.63;;;13.13;;
17482;SDS011;8858;52.308;20.994;2023-04-25T03:36:55;12.87;;;11.57;;
17482;SDS011;8858;52.308;20.994;2023-04-25T03:39:23;13.63;;;12.30;;
17482;SDS011;8858;52.308;20.994;2023-04-25T03:41:52;15.17;;;12.43;;
17482;SDS011;8858;52.308;20.994;2023-04-25T03:44:20;13.70;;;12.30;;
17482;SDS011;8858;52.308;20.994;2023-04-25T03:46:49;13.23;;;11.90;;
17482;SDS011;8858;52.308;20.994;2023-04-25T03:49:22;14.90;;;12.00;;
17482;SDS011;8858;52.308;20.994;2023-04-25T03:51:58;13.87;;;12.37;;
17482;SDS011;8858;52.308;20.994;2023-04-25T03:54:35;13.23;;;11.93;;
17482;SDS011;8858;52.308;20.994;2023-04-25T03:57:10;13.67;;;12.30;;
17482;SDS011;8858;52.308;20.994;2023-04-25T03:59:38;13.30;;;11.93;;
17482;SDS011;8858;52.308;20.994;2023-04-25T04:02:11;13.70;;;12.37;;
17482;SDS011;8858;52.308;20.994;2023-04-25T04:04:40;12.33;;;11.23;;
17482;SDS011;8858;52.308;20.994;2023-04-25T04:07:11;12.47;;;11.20;;
17482;SDS011;8858;52.308;20.994;2023-04-25T04:09:43;15.07;;;11.67;;
17482;SDS011;8858;52.308;20.994;2023-04-25T04:12:17;14.73;;;11.77;;
17482;SDS011;8858;52.308;20.994;2023-04-25T04:14:45;13.20;;;11.80;;
17482;SDS011;8858;52.308;20.994;2023-04-25T04:17:15;13.07;;;11.77;;
17482;SDS011;8858;52.308;20.994;2023-04-25T04:19:43;12.17;;;11.00;;
17482;SDS011;8858;52.308;20.994;2023-04-25T04:22:15;12.93;;;11.73;;
17482;SDS011;8858;52.308;20.994;2023-04-25T04:24:46;13.47;;;11.23;;
17482;SDS011;8858;52.308;20.994;2023-04-25T04:27:21;13.23;;;11.17;;
17482;SDS011;8858;52.308;20.994;2023-04-25T04:30:06;14.97;;;11.53;;
17482;SDS011;8858;52.308;20.994;2023-04-25T04:32:53;12.63;;;11.43;;
17482;SDS011;8858;52.308;20.994;2023-04-25T04:35:21;13.07;;;11.77;;
17482;SDS011;8858;52.308;20.994;2023-04-25T04:37:51;12.67;;;11.57;;
17482;SDS011;8858;52.308;20.994;2023-04-25T04:40:20;12.97;;;11.30;;
17482;SDS011;8858;52.308;20.994;2023-04-25T04:43:05;12.57;;;11.33;;
17482;SDS011;8858;52.308;20.994;2023-04-25T04:45:55;11.90;;;10.70;;
17482;SDS011;8858;52.308;20.994;2023-04-25T04:48:36;11.17;;;10.17;;
17482;SDS011;8858;52.308;20.994;2023-04-25T04:51:19;11.23;;;9.90;;
17482;SDS011;8858;52.308;20.994;2023-04-25T04:54:03;12.10;;;10.50;;
17482;SDS011;8858;52.308;20.994;2023-04-25T04:56:48;11.27;;;10.27;;
17482;SDS011;8858;52.308;20.994;2023-04-25T04:59:33;12.17;;;11.07;;
17482;SDS011;8858;52.308;20.994;2023-04-25T05:02:16;12.33;;;10.93;;
17482;SDS011;8858;52.308;20.994;2023-04-25T05:05:00;12.73;;;11.57;;
17482;SDS011;8858;52.308;20.994;2023-04-25T05:07:40;12.63;;;11.43;;
17482;SDS011;8858;52.308;20.994;2023-04-25T05:10:26;13.00;;;11.67;;
17482;SDS011;8858;52.308;20.994;2023-04-25T05:13:05;13.33;;;12.00;;
17482;SDS011;8858;52.308;20.994;2023-04-25T05:15:45;13.13;;;11.90;;
17482;SDS011;8858;52.308;20.994;2023-04-25T05:18:21;14.23;;;12.93;;
17482;SDS011;8858;52.308;20.994;2023-04-25T05:21:04;14.07;;;12.67;;
17482;SDS011;8858;52.308;20.994;2023-04-25T05:23:41;14.13;;;12.73;;
17482;SDS011;8858;52.308;20.994;2023-04-25T05:26:22;14.60;;;13.23;;
17482;SDS011;8858;52.308;20.994;2023-04-25T05:29:06;13.37;;;12.17;;
17482;SDS011;8858;52.308;20.994;2023-04-25T05:31:52;13.70;;;12.40;;
17482;SDS011;8858;52.308;20.994;2023-04-25T05:34:20;13.47;;;12.17;;
17482;SDS011;8858;52.308;20.994;2023-04-25T05:36:56;13.47;;;12.27;;
17482;SDS011;8858;52.308;20.994;2023-04-25T05:39:24;14.03;;;12.73;;
17482;SDS011;8858;52.308;20.994;2023-04-25T05:42:06;13.23;;;12.03;;
17482;SDS011;8858;52.308;20.994;2023-04-25T05:44:51;13.50;;;12.20;;
17482;SDS011;8858;52.308;20.994;2023-04-25T05:47:30;13.60;;;12.40;;
17482;SDS011;8858;52.308;20.994;2023-04-25T05:50:04;13.63;;;12.40;;
17482;SDS011;8858;52.308;20.994;2023-04-25T05:52:54;13.50;;;12.33;;
17482;SDS011;8858;52.308;20.994;2023-04-25T05:55:31;14.43;;;13.13;;
17482;SDS011;8858;52.308;20.994;2023-04-25T05:58:05;14.80;;;13.40;;
17482;SDS011;8858;52.308;20.994;2023-04-25T06:00:36;14.90;;;13.50;;
17482;SDS011;8858;52.308;20.994;2023-04-25T06:03:05;14.67;;;13.47;;
17482;SDS011;8858;52.308;20.994;2023-04-25T06:05:37;14.20;;;12.93;;
17482;SDS011;8858;52.308;20.994;2023-04-25T06:08:07;13.80;;;12.60;;
17482;SDS011;8858;52.308;20.994;2023-04-25T06:10:37;13.03;;;11.83;;
17482;SDS011;8858;52.308;20.994;2023-04-25T06:13:06;13.83;;;12.63;;
17482;SDS011;8858;52.308;20.994;2023-04-25T06:15:36;12.60;;;11.50;;
17482;SDS011;8858;52.308;20.994;2023-04-25T06:18:04;12.87;;;11.80;;
17482;SDS011;8858;52.308;20.994;2023-04-25T06:20:33;13.90;;;12.60;;
17482;SDS011;8858;52.308;20.994;2023-04-25T06:23:02;13.60;;;12.33;;
17482;SDS011;8858;52.308;20.994;2023-04-25T06:25:43;16.27;;;12.87;;
17482;SDS011;8858;52.308;20.994;2023-04-25T06:28:12;14.67;;;13.33;;
17482;SDS011;8858;52.308;20.994;2023-04-25T06:30:43;14.40;;;13.20;;
17482;SDS011;8858;52.308;20.994;2023-04-25T06:33:16;15.23;;;13.83;;
17482;SDS011;8858;52.308;20.994;2023-04-25T06:35:48;15.80;;;14.40;;
17482;SDS011;8858;52.308;20.994;2023-04-25T06:38:21;16.63;;;14.80;;
17482;SDS011;8858;52.308;20.994;2023-04-25T06:40:52;17.00;;;15.47;;
17482;SDS011;8858;52.308;20.994;2023-04-25T06:43:28;16.20;;;14.80;;
17482;SDS011;8858;52.308;20.994;2023-04-25T06:46:12;17.70;;;15.00;;
17482;SDS011;8858;52.308;20.994;2023-04-25T06:48:44;18.23;;;16.53;;
17482;SDS011;8858;52.308;20.994;2023-04-25T06:51:12;17.33;;;15.70;;
17482;SDS011;8858;52.308;20.994;2023-04-25T06:53:42;17.80;;;16.10;;
17482;SDS011;8858;52.308;20.994;2023-04-25T06:56:23;19.77;;;17.80;;
17482;SDS011;8858;52.308;20.994;2023-04-25T06:59:00;19.50;;;17.70;;
17482;SDS011;8858;52.308;20.994;2023-04-25T07:01:34;20.97;;;18.97;;
17482;SDS011;8858;52.308;20.994;2023-04-25T07:04:07;23.53;;;21.13;;
17482;SDS011;8858;52.308;20.994;2023-04-25T07:06:44;21.40;;;19.40;;
17482;SDS011;8858;52.308;20.994;2023-04-25T07:09:16;20.03;;;18.17;;
17482;SDS011;8858;52.308;20.994;2023-04-25T07:11:49;18.73;;;17.13;;
17482;SDS011;8858;52.308;20.994;2023-04-25T07:14:17;18.60;;;16.83;;
17482;SDS011;8858;52.308;20.994;2023-04-25T07:16:47;19.33;;;17.43;;
17482;SDS011;8858;52.308;20.994;2023-04-25T07:19:16;16.37;;;14.97;;
17482;SDS011;8858;52.308;20.994;2023-04-25T07:21:44;17.73;;;16.03;;
17482;SDS011;8858;52.308;20.994;2023-04-25T07:24:16;16.70;;;15.30;;
17482;SDS011;8858;52.308;20.994;2023-04-25T07:26:46;16.23;;;14.73;;
17482;SDS011;8858;52.308;20.994;2023-04-25T07:29:26;14.47;;;13.07;;
17482;SDS011;8858;52.308;20.994;2023-04-25T07:31:58;13.33;;;12.23;;
17482;SDS011;8858;52.308;20.994;2023-04-25T07:34:26;14.07;;;12.80;;
17482;SDS011;8858;52.308;20.994;2023-04-25T07:36:57;14.53;;;12.60;;
17482;SDS011;8858;52.308;20.994;2023-04-25T07:39:34;12.17;;;10.97;;
17482;SDS011;8858;52.308;20.994;2023-04-25T07:42:06;11.30;;;10.40;;
17482;SDS011;8858;52.308;20.994;2023-04-25T07:44:40;9.97;;;9.17;;
17482;SDS011;8858;52.308;20.994;2023-04-25T07:47:12;11.00;;;10.10;;
17482;SDS011;8858;52.308;20.994;2023-04-25T07:49:40;10.03;;;9.23;;
17482;SDS011;8858;52.308;20.994;2023-04-25T07:52:08;9.37;;;8.60;;
17482;SDS011;8858;52.308;20.994;2023-04-25T07:54:40;9.70;;;8.90;;
17482;SDS011;8858;52.308;20.994;2023-04-25T07:57:15;10.73;;;9.70;;
17482;SDS011;8858;52.308;20.994;2023-04-25T07:59:47;10.47;;;9.60;;
17482;SDS011;8858;52.308;20.994;2023-04-25T08:02:17;10.70;;;9.80;;
17482;SDS011;8858;52.308;20.994;2023-04-25T08:04:45;10.63;;;9.67;;
17482;SDS011;8858;52.308;20.994;2023-04-25T08:07:17;10.77;;;9.77;;
17482;SDS011;8858;52.308;20.994;2023-04-25T08:09:50;10.23;;;9.33;;
17482;SDS011;8858;52.308;20.994;2023-04-25T08:12:23;10.57;;;9.50;;
17482;SDS011;8858;52.308;20.994;2023-04-25T08:14:53;10.50;;;9.70;;
17482;SDS011;8858;52.308;20.994;2023-04-25T08:17:24;11.57;;;10.43;;
17482;SDS011;8858;52.308;20.994;2023-04-25T08:19:52;12.20;;;11.00;;
17482;SDS011;8858;52.308;20.994;2023-04-25T08:22:25;11.93;;;11.00;;
17482;SDS011;8858;52.308;20.994;2023-04-25T08:25:10;13.73;;;12.53;;
17482;SDS011;8858;52.308;20.994;2023-04-25T08:27:39;12.37;;;11.27;;
17482;SDS011;8858;52.308;20.994;2023-04-25T08:30:10;12.57;;;11.60;;
17482;SDS011;8858;52.308;20.994;2023-04-25T08:32:42;11.10;;;10.23;;
17482;SDS011;8858;52.308;20.994;2023-04-25T08:35:30;12.17;;;11.17;;
17482;SDS011;8858;52.308;20.994;2023-04-25T08:38:00;11.53;;;10.60;;
17482;SDS011;8858;52.308;20.994;2023-04-25T08:40:32;11.07;;;10.17;;
17482;SDS011;8858;52.308;20.994;2023-04-25T08:43:10;10.50;;;9.70;;
17482;SDS011;8858;52.308;20.994;2023-04-25T08:45:43;10.30;;;9.50;;
17482;SDS011;8858;52.308;20.994;2023-04-25T08:48:23;10.80;;;9.93;;
17482;SDS011;8858;52.308;20.994;2023-04-25T08:50:55;10.53;;;9.63;;
17482;SDS011;8858;52.308;20.994;2023-04-25T08:53:25;10.73;;;9.83;;
17482;SDS011;8858;52.308;20.994;2023-04-25T08:56:02;9.80;;;9.10;;
17482;SDS011;8858;52.308;20.994;2023-04-25T08:58:34;10.80;;;10.00;;
17482;SDS011;8858;52.308;20.994;2023-04-25T09:01:06;10.40;;;9.50;;
17482;SDS011;8858;52.308;20.994;2023-04-25T09:03:42;9.40;;;8.70;;
17482;SDS011;8858;52.308;20.994;2023-04-25T09:06:13;9.30;;;8.50;;
17482;SDS011;8858;52.308;20.994;2023-04-25T09:08:43;9.73;;;9.03;;
17482;SDS011;8858;52.308;20.994;2023-04-25T09:11:11;9.63;;;8.83;;
17482;SDS011;8858;52.308;20.994;2023-04-25T09:13:41;9.53;;;8.73;;
17482;SDS011;8858;52.308;20.994;2023-04-25T09:16:22;9.37;;;8.67;;
17482;SDS011;8858;52.308;20.994;2023-04-25T09:19:13;13.00;;;9.60;;
17482;SDS011;8858;52.308;20.994;2023-04-25T09:22:11;11.33;;;10.33;;
17482;SDS011;8858;52.308;20.994;2023-04-25T09:24:40;10.90;;;9.90;;
17482;SDS011;8858;52.308;20.994;2023-04-25T09:27:10;10.47;;;9.67;;
17482;SDS011;8858;52.308;20.994;2023-04-25T09:29:41;11.73;;;10.80;;
17482;SDS011;8858;52.308;20.994;2023-04-25T09:32:14;11.20;;;10.30;;
17482;SDS011;8858;52.308;20.994;2023-04-25T09:34:50;11.20;;;10.33;;
17482;SDS011;8858;52.308;20.994;2023-04-25T09:37:20;10.80;;;10.00;;
17482;SDS011;8858;52.308;20.994;2023-04-25T09:40:04;10.07;;;9.20;;
17482;SDS011;8858;52.308;20.994;2023-04-25T09:42:47;11.50;;;10.50;;
17482;SDS011;8858;52.308;20.994;2023-04-25T09:45:18;10.87;;;9.97;;
17482;SDS011;8858;52.308;20.994;2023-04-25T09:47:50;11.63;;;10.70;;
17482;SDS011;8858;52.308;20.994;2023-04-25T09:50:30;11.40;;;10.50;;
17482;SDS011;8858;52.308;20.994;2023-04-25T09:53:06;11.53;;;10.47;;
17482;SDS011;8858;52.308;20.994;2023-04-25T09:55:52;12.13;;;11.13;;
17482;SDS011;8858;52.308;20.994;2023-04-25T09:58:21;12.63;;;11.50;;
17482;SDS011;8858;52.308;20.994;2023-04-25T10:00:52;12.00;;;11.00;;
17482;SDS011;8858;52.308;20.994;2023-04-25T10:03:36;11.83;;;10.83;;
17482;SDS011;8858;52.308;20.994;2023-04-25T10:06:18;13.07;;;11.87;;
17482;SDS011;8858;52.308;20.994;2023-04-25T10:08:49;13.60;;;12.40;;
17482;SDS011;8858;52.308;20.994;2023-04-25T10:11:22;12.97;;;11.97;;
17482;SDS011;8858;52.308;20.994;2023-04-25T10:13:54;14.47;;;13.37;;
17482;SDS011;8858;52.308;20.994;2023-04-25T10:16:23;14.90;;;13.70;;
17482;SDS011;8858;52.308;20.994;2023-04-25T10:18:54;15.90;;;14.60;;
17482;SDS011;8858;52.308;20.994;2023-04-25T10:21:23;15.77;;;14.47;;
17482;SDS011;8858;52.308;20.994;2023-04-25T10:23:53;16.87;;;15.53;;
17482;SDS011;8858;52.308;20.994;2023-04-25T10:26:23;16.93;;;15.53;;
17482;SDS011;8858;52.308;20.994;2023-04-25T10:28:54;16.83;;;15.27;;
17482;SDS011;8858;52.308;20.994;2023-04-25T10:31:23;18.87;;;15.70;;
17482;SDS011;8858;52.308;20.994;2023-04-25T10:33:53;17.40;;;15.97;;
17482;SDS011;8858;52.308;20.994;2023-04-25T10:36:26;18.87;;;17.20;;
17482;SDS011;8858;52.308;20.994;2023-04-25T10:38:58;17.70;;;16.20;;
17482;SDS011;8858;52.308;20.994;2023-04-25T10:41:45;20.93;;;18.97;;
17482;SDS011;8858;52.308;20.994;2023-04-25T10:44:17;21.40;;;19.10;;
17482;SDS011;8858;52.308;20.994;2023-04-25T10:46:46;19.03;;;17.23;;
17482;SDS011;8858;52.308;20.994;2023-04-25T10:52:11;19.00;;;17.23;;
17482;SDS011;8858;52.308;20.994;2023-04-25T10:54:42;18.13;;;16.70;;
17482;SDS011;8858;52.308;20.994;2023-04-25T10:59:58;17.33;;;15.63;;
17482;SDS011;8858;52.308;20.994;2023-04-25T11:02:28;14.50;;;13.30;;
17482;SDS011;8858;52.308;20.994;2023-04-25T11:04:58;13.53;;;12.43;;
17482;SDS011;8858;52.308;20.994;2023-04-25T11:07:32;12.63;;;11.53;;
17482;SDS011;8858;52.308;20.994;2023-04-25T11:10:05;13.33;;;12.23;;
17482;SDS011;8858;52.308;20.994;2023-04-25T11:12:37;12.13;;;11.13;;
17482;SDS011;8858;52.308;20.994;2023-04-25T11:15:06;13.43;;;12.43;;
17482;SDS011;8858;52.308;20.994;2023-04-25T11:17:35;10.93;;;10.03;;
17482;SDS011;8858;52.308;20.994;2023-04-25T11:20:05;12.57;;;11.63;;
17482;SDS011;8858;52.308;20.994;2023-04-25T11:22:41;12.63;;;11.40;;
17482;SDS011;8858;52.308;20.994;2023-04-25T11:25:11;8.23;;;7.53;;
17482;SDS011;8858;52.308;20.994;2023-04-25T11:27:49;7.50;;;6.87;;
17482;SDS011;8858;52.308;20.994;2023-04-25T11:30:18;8.33;;;7.53;;
17482;SDS011;8858;52.308;20.994;2023-04-25T11:32:47;8.43;;;7.73;;
17482;SDS011;8858;52.308;20.994;2023-04-25T11:35:20;8.50;;;7.80;;
17482;SDS011;8858;52.308;20.994;2023-04-25T11:37:51;7.63;;;7.07;;
17482;SDS011;8858;52.308;20.994;2023-04-25T11:40:20;6.73;;;6.13;;
17482;SDS011;8858;52.308;20.994;2023-04-25T11:42:48;7.87;;;6.73;;
17482;SDS011;8858;52.308;20.994;2023-04-25T11:45:20;7.23;;;6.70;;
17482;SDS011;8858;52.308;20.994;2023-04-25T11:47:49;6.77;;;6.27;;
17482;SDS011;8858;52.308;20.994;2023-04-25T11:50:29;6.47;;;5.97;;
17482;SDS011;8858;52.308;20.994;2023-04-25T11:52:57;6.53;;;6.03;;
17482;SDS011;8858;52.308;20.994;2023-04-25T11:55:25;7.27;;;6.67;;
17482;SDS011;8858;52.308;20.994;2023-04-25T11:57:55;7.43;;;6.73;;
17482;SDS011;8858;52.308;20.994;2023-04-25T12:00:27;7.33;;;6.73;;
17482;SDS011;8858;52.308;20.994;2023-04-25T12:02:56;7.57;;;6.97;;
17482;SDS011;8858;52.308;20.994;2023-04-25T12:05:27;8.30;;;7.57;;
17482;SDS011;8858;52.308;20.994;2023-04-25T12:08:09;8.50;;;7.63;;
17482;SDS011;8858;52.308;20.994;2023-04-25T12:10:40;8.93;;;8.13;;
17482;SDS011;8858;52.308;20.994;2023-04-25T12:13:20;7.87;;;7.07;;
17482;SDS011;8858;52.308;20.994;2023-04-25T12:15:50;8.50;;;7.80;;
17482;SDS011;8858;52.308;20.994;2023-04-25T12:18:20;8.83;;;8.13;;
17482;SDS011;8858;52.308;20.994;2023-04-25T12:20:56;8.00;;;7.20;;
17482;SDS011;8858;52.308;20.994;2023-04-25T12:23:27;7.57;;;7.07;;
17482;SDS011;8858;52.308;20.994;2023-04-25T12:25:56;8.00;;;7.40;;
17482;SDS011;8858;52.308;20.994;2023-04-25T12:28:25;7.60;;;7.00;;
17482;SDS011;8858;52.308;20.994;2023-04-25T12:30:55;7.60;;;6.97;;
17482;SDS011;8858;52.308;20.994;2023-04-25T12:33:25;6.83;;;6.10;;
17482;SDS011;8858;52.308;20.994;2023-04-25T12:35:56;6.83;;;6.13;;
17482;SDS011;8858;52.308;20.994;2023-04-25T12:38:25;7.73;;;5.83;;
17482;SDS011;8858;52.308;20.994;2023-04-25T12:40:56;7.00;;;6.27;;
17482;SDS011;8858;52.308;20.994;2023-04-25T12:43:25;6.53;;;5.90;;
17482;SDS011;8858;52.308;20.994;2023-04-25T12:45:57;7.47;;;6.27;;
17482;SDS011;8858;52.308;20.994;2023-04-25T12:48:30;5.00;;;4.53;;
17482;SDS011;8858;52.308;20.994;2023-04-25T12:51:00;4.87;;;4.37;;
17482;SDS011;8858;52.308;20.994;2023-04-25T12:53:28;5.03;;;4.63;;
17482;SDS011;8858;52.308;20.994;2023-04-25T12:56:01;5.57;;;5.17;;
17482;SDS011;8858;52.308;20.994;2023-04-25T12:58:29;4.50;;;4.20;;
17482;SDS011;8858;52.308;20.994;2023-04-25T13:01:00;4.70;;;4.30;;
17482;SDS011;8858;52.308;20.994;2023-04-25T13:03:29;4.93;;;4.37;;
17482;SDS011;8858;52.308;20.994;2023-04-25T13:05:57;5.30;;;4.20;;
17482;SDS011;8858;52.308;20.994;2023-04-25T13:08:26;4.60;;;4.20;;
17482;SDS011;8858;52.308;20.994;2023-04-25T13:10:55;4.80;;;4.30;;
17482;SDS011;8858;52.308;20.994;2023-04-25T13:13:26;5.17;;;4.67;;
17482;SDS011;8858;52.308;20.994;2023-04-25T13:15:54;4.97;;;4.57;;
17482;SDS011;8858;52.308;20.994;2023-04-25T13:18:23;4.37;;;4.03;;
17482;SDS011;8858;52.308;20.994;2023-04-25T13:20:56;6.93;;;4.50;;
17482;SDS011;8858;52.308;20.994;2023-04-25T13:23:27;6.97;;;3.80;;
17482;SDS011;8858;52.308;20.994;2023-04-25T13:25:57;4.10;;;3.80;;
17482;SDS011;8858;52.308;20.994;2023-04-25T13:28:27;3.13;;;2.93;;
17482;SDS011;8858;52.308;20.994;2023-04-25T13:30:55;3.20;;;3.00;;
17482;SDS011;8858;52.308;20.994;2023-04-25T13:33:24;3.10;;;2.90;;
17482;SDS011;8858;52.308;20.994;2023-04-25T13:35:56;3.07;;;2.87;;
17482;SDS011;8858;52.308;20.994;2023-04-25T13:38:24;4.40;;;2.60;;
17482;SDS011;8858;52.308;20.994;2023-04-25T13:40:54;3.10;;;2.90;;
17482;SDS011;8858;52.308;20.994;2023-04-25T13:43:22;3.20;;;3.00;;
17482;SDS011;8858;52.308;20.994;2023-04-25T13:45:51;3.27;;;2.97;;
17482;SDS011;8858;52.308;20.994;2023-04-25T13:48:20;4.77;;;3.20;;
17482;SDS011;8858;52.308;20.994;2023-04-25T13:50:49;3.57;;;3.27;;
17482;SDS011;8858;52.308;20.994;2023-04-25T13:53:17;3.57;;;3.27;;
17482;SDS011;8858;52.308;20.994;2023-04-25T13:55:46;3.50;;;3.20;;
17482;SDS011;8858;52.308;20.994;2023-04-25T13:58:18;3.53;;;3.23;;
17482;SDS011;8858;52.308;20.994;2023-04-25T14:00:47;3.93;;;3.63;;
17482;SDS011;8858;52.308;20.994;2023-04-25T14:03:17;4.27;;;3.67;;
17482;SDS011;8858;52.308;20.994;2023-04-25T14:05:45;4.00;;;3.70;;
17482;SDS011;8858;52.308;20.994;2023-04-25T14:08:13;3.90;;;3.60;;
17482;SDS011;8858;52.308;20.994;2023-04-25T14:10:41;3.97;;;3.67;;
17482;SDS011;8858;52.308;20.994;2023-04-25T14:13:10;4.13;;;3.73;;
17482;SDS011;8858;52.308;20.994;2023-04-25T14:15:38;3.53;;;3.23;;
17482;SDS011;8858;52.308;20.994;2023-04-25T14:18:07;3.77;;;3.53;;
17482;SDS011;8858;52.308;20.994;2023-04-25T14:20:35;4.00;;;3.70;;
17482;SDS011;8858;52.308;20.994;2023-04-25T14:23:05;3.70;;;3.33;;
17482;SDS011;8858;52.308;20.994;2023-04-25T14:25:33;4.37;;;3.97;;
17482;SDS011;8858;52.308;20.994;2023-04-25T14:28:03;4.00;;;3.60;;
17482;SDS011;8858;52.308;20.994;2023-04-25T14:30:32;4.23;;;3.83;;
17482;SDS011;8858;52.308;20.994;2023-04-25T14:33:00;4.40;;;3.77;;
17482;SDS011;8858;52.308;20.994;2023-04-25T14:35:29;5.13;;;3.60;;
17482;SDS011;8858;52.308;20.994;2023-04-25T14:37:57;4.10;;;3.80;;
17482;SDS011;8858;52.308;20.994;2023-04-25T14:40:26;4.20;;;3.90;;
17482;SDS011;8858;52.308;20.994;2023-04-25T14:42:54;4.53;;;4.13;;
17482;SDS011;8858;52.308;20.994;2023-04-25T14:45:23;4.93;;;4.50;;
17482;SDS011;8858;52.308;20.994;2023-04-25T14:47:52;4.87;;;4.47;;
17482;SDS011;8858;52.308;20.994;2023-04-25T14:50:23;7.47;;;4.80;;
17482;SDS011;8858;52.308;20.994;2023-04-25T14:52:55;5.50;;;5.00;;
17482;SDS011;8858;52.308;20.994;2023-04-25T14:55:25;5.60;;;5.10;;
17482;SDS011;8858;52.308;20.994;2023-04-25T14:57:59;5.67;;;5.13;;
17482;SDS011;8858;52.308;20.994;2023-04-25T15:00:29;6.07;;;5.50;;
17482;SDS011;8858;52.308;20.994;2023-04-25T15:02:59;6.00;;;5.40;;
17482;SDS011;8858;52.308;20.994;2023-04-25T15:05:28;6.43;;;5.83;;